createdAt,value
2022-10-01T00:08:09.223Z,78
2022-10-01T00:28:10.333Z,78
2022-10-01T00:38:10.643Z,82
2022-10-01T00:48:11.719Z,87
2022-10-01T00:58:12.090Z,92
2022-10-01T01:08:13.160Z,94
2022-10-01T01:28:14.167Z,97
2022-10-01T01:38:15.093Z,98
2022-10-01T01:48:15.371Z,99
2022-10-01T01:58:16.193Z,100
2022-10-01T02:08:16.651Z,100
2022-10-01T02:38:18.604Z,100
2022-10-01T02:48:18.766Z,100
2022-10-01T02:58:19.225Z,100
2022-10-01T03:08:20.040Z,100
2022-10-01T03:18:20.930Z,100
2022-10-01T03:28:21.746Z,100
2022-10-01T03:38:22.019Z,100
2022-10-01T03:48:22.491Z,100
2022-10-01T04:08:24.451Z,100
2022-10-01T04:18:24.278Z,100
2022-10-01T04:28:24.878Z,100
2022-10-01T04:38:25.612Z,100
2022-10-01T04:48:26.021Z,100
2022-10-01T05:08:26.970Z,100
2022-10-01T05:18:27.561Z,100
2022-10-01T05:38:28.785Z,100
2022-10-01T05:48:29.709Z,100
2022-10-01T05:58:30.290Z,100
2022-10-01T06:08:31.025Z,100
2022-10-01T06:18:31.464Z,100
2022-10-01T06:28:31.983Z,100
2022-10-01T06:38:32.593Z,100
2022-10-01T06:48:33.572Z,100
2022-10-01T06:58:34.422Z,100
2022-10-01T07:18:35.094Z,100
2022-10-01T07:28:35.312Z,100
2022-10-01T07:38:35.463Z,100
2022-10-01T07:58:36.104Z,100
2022-10-01T08:08:37.093Z,100
2022-10-01T08:18:37.583Z,100
2022-10-01T08:28:37.814Z,100
2022-10-01T08:38:38.043Z,100
2022-10-01T08:48:39.123Z,100
2022-10-01T08:58:39.998Z,100
2022-10-01T09:08:41.093Z,100
2022-10-01T09:18:41.204Z,100
2022-10-01T09:28:41.875Z,100
2022-10-01T09:38:42.824Z,100
2022-10-01T09:48:43.537Z,100
2022-10-01T10:08:45.093Z,100
2022-10-01T10:18:45.429Z,100
2022-10-01T10:28:46.450Z,98
2022-10-01T10:38:46.661Z,96
2022-10-01T10:48:47.029Z,94
2022-10-01T10:58:47.694Z,94
2022-10-01T11:08:48.331Z,93
2022-10-01T11:18:49.376Z,94
2022-10-01T11:28:49.988Z,97
2022-10-01T11:48:51.033Z,100
2022-10-01T11:58:52.021Z,100
2022-10-01T12:08:52.535Z,100
2022-10-01T12:18:53.557Z,100
2022-10-01T12:28:58.013Z,100
2022-10-01T12:48:55.768Z,99
2022-10-01T13:08:57.282Z,97
2022-10-01T13:18:58.225Z,94
2022-10-01T13:39:00.134Z,93
2022-10-01T13:39:22.036Z,93
2022-10-01T13:49:06.705Z,92
2022-10-01T14:09:07.178Z,84
2022-10-01T14:19:08.225Z,82
2022-10-01T14:29:09.123Z,84
2022-10-01T14:39:09.692Z,84
2022-10-01T14:49:10.347Z,80
2022-10-01T14:59:15.026Z,80
2022-10-01T15:09:11.512Z,79
2022-10-01T15:19:12.411Z,80
2022-10-01T15:29:13.070Z,81
2022-10-01T15:39:14.047Z,82
2022-10-01T15:49:14.693Z,81
2022-10-01T15:59:15.446Z,80
2022-10-01T16:09:15.897Z,80
2022-10-01T16:19:16.817Z,81
2022-10-01T16:29:17.437Z,82
2022-10-01T16:39:17.827Z,84
2022-10-01T16:49:18.209Z,85
2022-10-01T16:59:19.150Z,86
2022-10-01T17:09:20.155Z,87
2022-10-01T17:19:20.975Z,88
2022-10-01T17:29:21.222Z,89
2022-10-01T17:39:21.627Z,89
2022-10-01T17:49:22.592Z,90
2022-10-01T17:59:22.710Z,90
2022-10-01T18:09:23.689Z,91
2022-10-01T18:19:52.680Z,91
2022-10-01T18:29:25.121Z,92
2022-10-01T18:39:25.886Z,92
2022-10-01T18:49:26.083Z,93
2022-10-01T18:59:26.426Z,93
2022-10-01T19:09:26.875Z,93
2022-10-01T19:19:27.931Z,93
2022-10-01T19:49:30.256Z,94
2022-10-01T20:19:32.713Z,95
2022-10-01T20:29:33.060Z,95
2022-10-01T20:49:33.632Z,96
2022-10-01T21:09:35.208Z,97
2022-10-01T21:29:35.793Z,97
2022-10-01T21:39:36.207Z,97
2022-10-01T21:59:37.527Z,98
2022-10-01T22:09:38.270Z,98
2022-10-01T22:49:40.320Z,99
2022-10-01T22:59:40.951Z,100
2022-10-01T23:09:41.344Z,100
2022-10-01T23:19:42.309Z,100
2022-10-01T23:29:42.647Z,100
2022-10-01T23:39:42.750Z,100
2022-10-01T23:49:43.027Z,100
2022-10-01T23:59:43.955Z,100
